Time;durP1;ratioP1;P1;durP2;ratioP2;P2;SDS_P1;SDS_P2;PMS_P1;PMS_P2;Temp;Humidity;BMP_temperature;BMP_pressure;BME280_temperature;BME280_humidity;BME280_pressure;Samples;Min_cycle;Max_cycle;Signal;HPM_P1;HPM_P2
2023/09/24 00:01:40;;;;;;;2.40;1.75;;;10.60;99.90;;;;;;5091108;28;20295;-58
2023/09/24 00:04:09;;;;;;;4.53;2.17;;;10.60;99.90;;;;;;5075993;28;20204;-58
2023/09/24 00:06:37;;;;;;;5.57;1.90;;;10.60;99.90;;;;;;5091567;28;20239;-58
2023/09/24 00:09:05;;;;;;;5.68;1.88;;;10.50;99.90;;;;;;5091198;28;20224;-58
2023/09/24 00:11:32;;;;;;;4.82;2.15;;;10.50;99.90;;;;;;5091166;28;20281;-58
2023/09/24 00:14:00;;;;;;;5.95;2.65;;;10.50;99.90;;;;;;5090978;28;20224;-58
2023/09/24 00:16:28;;;;;;;2.40;1.55;;;10.50;99.90;;;;;;5091040;28;20705;-58
2023/09/24 00:18:58;;;;;;;3.10;1.95;;;10.40;99.90;;;;;;5091010;28;20291;-57
2023/09/24 00:21:26;;;;;;;3.83;2.00;;;10.40;99.90;;;;;;5091029;28;20240;-58
2023/09/24 00:23:54;;;;;;;2.25;1.70;;;10.40;99.90;;;;;;5091135;28;20205;-58
2023/09/24 00:26:22;;;;;;;2.85;2.20;;;10.40;99.90;;;;;;5090957;28;20714;-58
2023/09/24 00:28:50;;;;;;;3.08;1.70;;;10.40;99.90;;;;;;5090803;28;20212;-58
2023/09/24 00:31:18;;;;;;;3.05;1.73;;;10.40;99.90;;;;;;5091202;28;20232;-57
2023/09/24 00:33:46;;;;;;;3.58;1.92;;;10.40;99.90;;;;;;5090902;28;20229;-57
2023/09/24 00:36:16;;;;;;;6.82;1.95;;;10.30;99.90;;;;;;5091307;28;20227;-58
2023/09/24 00:38:44;;;;;;;4.45;2.17;;;10.30;99.90;;;;;;5090583;28;20236;-58
2023/09/24 00:41:13;;;;;;;2.42;1.73;;;10.40;99.90;;;;;;5090917;28;20232;-58
2023/09/24 00:43:43;;;;;;;3.15;2.13;;;10.30;99.90;;;;;;5091041;28;20666;-57
2023/09/24 00:46:13;;;;;;;3.20;1.70;;;10.30;99.90;;;;;;5091217;28;20236;-58
2023/09/24 00:48:41;;;;;;;4.00;2.00;;;10.30;99.90;;;;;;5090674;28;20243;-58
2023/09/24 00:51:14;;;;;;;5.78;1.95;;;10.30;99.90;;;;;;5091141;28;20223;-58
2023/09/24 00:53:43;;;;;;;4.25;1.50;;;10.30;99.90;;;;;;5091012;28;20766;-58
2023/09/24 00:56:11;;;;;;;2.33;1.50;;;10.30;99.90;;;;;;5079334;28;20239;-58
2023/09/24 00:58:39;;;;;;;3.22;1.90;;;10.20;99.90;;;;;;5085943;28;20292;-58
2023/09/24 01:01:07;;;;;;;5.05;2.38;;;10.20;99.90;;;;;;5094682;28;20325;-58
2023/09/24 01:03:38;;;;;;;4.10;1.98;;;10.20;99.90;;;;;;5094556;28;20258;-58
2023/09/24 01:06:06;;;;;;;2.78;1.92;;;10.20;99.90;;;;;;5094264;28;20788;-58
2023/09/24 01:08:35;;;;;;;3.88;1.98;;;10.20;99.90;;;;;;5094310;28;20666;-58
2023/09/24 01:11:05;;;;;;;2.22;1.95;;;10.20;99.90;;;;;;5094322;28;21481;-58
2023/09/24 01:13:40;;;;;;;3.53;1.60;;;10.20;99.90;;;;;;5094357;28;20220;-58
2023/09/24 01:16:09;;;;;;;1.65;1.30;;;10.10;99.90;;;;;;5077195;28;20224;-58
2023/09/24 01:18:39;;;;;;;4.22;1.60;;;10.10;99.90;;;;;;5094009;28;20236;-57
2023/09/24 01:21:11;;;;;;;6.57;1.80;;;10.10;99.90;;;;;;5094434;28;20200;-58
2023/09/24 01:23:42;;;;;;;1.85;1.52;;;10.10;99.90;;;;;;5094246;28;20200;-57
2023/09/24 01:26:11;;;;;;;2.78;1.80;;;10.00;99.90;;;;;;5090781;28;20235;-58
2023/09/24 01:28:39;;;;;;;5.55;1.90;;;10.00;99.90;;;;;;5093905;28;20208;-58
2023/09/24 01:31:08;;;;;;;3.80;2.03;;;10.00;99.90;;;;;;5085708;28;20209;-58
2023/09/24 01:33:38;;;;;;;2.58;1.40;;;10.00;99.90;;;;;;5094052;28;20228;-58
2023/09/24 01:36:08;;;;;;;3.17;1.55;;;9.90;99.90;;;;;;5082781;28;20221;-58
2023/09/24 01:38:36;;;;;;;4.20;1.55;;;9.90;99.90;;;;;;5081822;28;20672;-57
2023/09/24 01:41:08;;;;;;;5.57;2.00;;;9.90;99.90;;;;;;5093496;28;20204;-58
2023/09/24 01:43:35;;;;;;;5.60;2.10;;;9.90;99.90;;;;;;5093906;28;20243;-58
2023/09/24 01:46:06;;;;;;;2.67;1.95;;;9.90;99.90;;;;;;5093598;28;20274;-57
2023/09/24 01:48:34;;;;;;;4.47;1.88;;;9.80;99.90;;;;;;5093628;28;20224;-58
2023/09/24 01:51:06;;;;;;;9.07;1.70;;;9.80;99.90;;;;;;5078406;28;20201;-58
2023/09/24 01:53:35;;;;;;;2.40;1.65;;;9.80;99.90;;;;;;5082389;28;20263;-58
2023/09/24 01:56:04;;;;;;;3.60;1.77;;;9.80;99.90;;;;;;5093515;28;20724;-57
2023/09/24 01:58:34;;;;;;;3.67;1.80;;;9.70;99.90;;;;;;5093658;28;20208;-58
2023/09/24 02:01:02;;;;;;;6.03;1.90;;;9.70;99.90;;;;;;5093379;28;20236;-58
2023/09/24 02:03:31;;;;;;;4.18;1.55;;;9.70;99.90;;;;;;5092827;28;20205;-57
2023/09/24 02:05:59;;;;;;;3.72;1.50;;;9.70;99.90;;;;;;5093263;28;20228;-57
2023/09/24 02:08:27;;;;;;;2.63;1.60;;;9.70;99.90;;;;;;5093236;28;20262;-57
2023/09/24 02:10:55;;;;;;;2.03;1.73;;;9.70;99.90;;;;;;5076260;28;20259;-57
2023/09/24 02:13:23;;;;;;;4.20;1.58;;;9.70;99.90;;;;;;5078068;28;20228;-57
2023/09/24 02:15:53;;;;;;;3.45;1.60;;;9.60;99.90;;;;;;5084559;28;20323;-58
2023/09/24 02:18:21;;;;;;;7.40;1.75;;;9.60;99.90;;;;;;5092698;28;20258;-58
2023/09/24 02:20:52;;;;;;;2.22;1.55;;;9.60;99.90;;;;;;5077803;28;20300;-58
2023/09/24 02:23:22;;;;;;;2.13;1.50;;;9.60;99.90;;;;;;5084608;28;20205;-58
2023/09/24 02:25:50;;;;;;;3.28;1.10;;;9.60;99.90;;;;;;5092905;28;20221;-58
2023/09/24 02:28:18;;;;;;;2.38;1.48;;;9.60;99.90;;;;;;5092671;28;20208;-57
2023/09/24 02:30:47;;;;;;;1.77;1.40;;;9.60;99.90;;;;;;5092786;28;20204;-58
2023/09/24 02:33:17;;;;;;;2.50;1.50;;;9.50;99.90;;;;;;5082480;28;20224;-58
2023/09/24 02:35:45;;;;;;;5.10;1.88;;;9.50;99.90;;;;;;5084618;28;20263;-57
2023/09/24 02:38:14;;;;;;;2.10;1.50;;;9.50;99.90;;;;;;5075624;28;20200;-58
2023/09/24 02:40:42;;;;;;;3.53;1.73;;;9.50;99.90;;;;;;5092749;28;20642;-58
2023/09/24 02:43:10;;;;;;;3.70;1.30;;;9.40;99.90;;;;;;5092456;28;20616;-58
2023/09/24 02:45:38;;;;;;;2.53;1.05;;;9.40;99.90;;;;;;5092775;28;20236;-58
2023/09/24 02:48:07;;;;;;;3.97;1.27;;;9.40;99.90;;;;;;5092271;28;20258;-58
2023/09/24 02:50:37;;;;;;;2.40;1.20;;;9.40;99.90;;;;;;5092586;28;20287;-58
2023/09/24 02:53:07;;;;;;;3.72;0.93;;;9.40;99.90;;;;;;5088808;28;20223;-58
2023/09/24 02:55:36;;;;;;;4.85;1.17;;;9.40;99.90;;;;;;5092588;28;20207;-58
2023/09/24 02:58:04;;;;;;;5.65;1.35;;;9.40;99.90;;;;;;5081275;28;20204;-58
2023/09/24 03:00:35;;;;;;;1.65;1.35;;;9.30;99.90;;;;;;5086518;28;20236;-58
2023/09/24 03:03:05;;;;;;;3.97;1.63;;;9.30;99.90;;;;;;5092367;28;20205;-58
2023/09/24 03:05:34;;;;;;;3.15;1.58;;;9.30;99.90;;;;;;5092485;28;20204;-57
2023/09/24 03:08:04;;;;;;;3.38;1.67;;;9.30;99.90;;;;;;5091666;28;20296;-58
2023/09/24 03:10:32;;;;;;;5.13;1.52;;;9.20;99.90;;;;;;5092164;28;20204;-58
2023/09/24 03:13:00;;;;;;;2.58;1.77;;;9.20;99.90;;;;;;5092102;28;20201;-58
2023/09/24 03:15:28;;;;;;;1.52;1.40;;;9.20;99.90;;;;;;5091431;28;20607;-58
2023/09/24 03:17:56;;;;;;;1.50;1.40;;;9.20;99.90;;;;;;5091966;28;20250;-58
2023/09/24 03:20:25;;;;;;;2.80;1.50;;;9.20;99.90;;;;;;5091997;28;20641;-57
2023/09/24 03:22:54;;;;;;;1.27;1.15;;;9.20;99.90;;;;;;5091651;28;20740;-58
2023/09/24 03:25:24;;;;;;;5.07;1.75;;;9.20;99.90;;;;;;5092225;28;20265;-57
2023/09/24 03:27:52;;;;;;;1.40;1.30;;;9.10;99.90;;;;;;5091792;28;20228;-58
2023/09/24 03:30:21;;;;;;;6.35;1.38;;;9.10;99.90;;;;;;5091555;28;20200;-58
2023/09/24 03:32:49;;;;;;;10.40;1.60;;;9.10;99.90;;;;;;5091849;28;20573;-57
2023/09/24 03:35:21;;;;;;;3.42;1.58;;;9.10;99.90;;;;;;5075824;28;20221;-58
2023/09/24 03:37:49;;;;;;;5.75;1.70;;;9.10;99.90;;;;;;5082970;28;20270;-58
2023/09/24 03:40:17;;;;;;;3.92;1.45;;;9.10;99.90;;;;;;5075122;28;20364;-57
2023/09/24 03:42:47;;;;;;;2.33;1.63;;;9.00;99.90;;;;;;5091615;28;20236;-58
2023/09/24 03:45:16;;;;;;;7.78;1.40;;;9.00;99.90;;;;;;5091399;28;20197;-58
2023/09/24 03:47:45;;;;;;;1.65;1.50;;;9.00;99.90;;;;;;5091402;28;20290;-57
2023/09/24 03:50:16;;;;;;;2.53;1.38;;;9.00;99.90;;;;;;5091372;28;20204;-58
2023/09/24 03:52:46;;;;;;;2.42;1.92;;;9.00;99.90;;;;;;5087405;28;20673;-58
2023/09/24 03:55:15;;;;;;;1.50;1.40;;;9.00;99.90;;;;;;5091512;28;20224;-57
2023/09/24 03:57:44;;;;;;;1.98;1.73;;;9.00;99.90;;;;;;5091301;28;20224;-58
2023/09/24 04:00:15;;;;;;;2.47;1.45;;;9.00;99.90;;;;;;5091201;28;20204;-58
2023/09/24 04:02:46;;;;;;;3.65;1.73;;;8.90;99.90;;;;;;5091332;28;20243;-57
2023/09/24 04:05:17;;;;;;;2.38;1.30;;;8.90;99.90;;;;;;5091443;28;20196;-58
2023/09/24 04:07:46;;;;;;;4.03;1.60;;;8.90;99.90;;;;;;5091053;28;20731;-57
2023/09/24 04:10:14;;;;;;;4.03;1.48;;;8.90;99.90;;;;;;5091233;28;20215;-58
2023/09/24 04:12:43;;;;;;;2.13;1.33;;;8.90;99.90;;;;;;5091253;28;20205;-58
2023/09/24 04:15:11;;;;;;;2.15;1.25;;;8.80;99.90;;;;;;5091313;28;20228;-58
2023/09/24 04:17:40;;;;;;;1.52;1.42;;;8.80;99.90;;;;;;5091219;28;20224;-57
2023/09/24 04:20:12;;;;;;;2.67;1.42;;;8.80;99.90;;;;;;5091161;28;20211;-58
2023/09/24 04:22:40;;;;;;;5.22;1.70;;;8.80;99.90;;;;;;5091012;28;20196;-57
2023/09/24 04:25:08;;;;;;;4.85;1.23;;;8.80;99.90;;;;;;5090820;28;20619;-57
2023/09/24 04:27:38;;;;;;;5.05;1.40;;;8.80;99.90;;;;;;5094143;28;20252;-58
2023/09/24 04:30:10;;;;;;;4.85;1.55;;;8.80;99.90;;;;;;5095441;28;20204;-58
2023/09/24 04:32:40;;;;;;;4.35;1.30;;;8.80;99.90;;;;;;5095100;28;20622;-58
2023/09/24 04:35:09;;;;;;;2.80;1.70;;;8.80;99.90;;;;;;5094075;28;20226;-58
2023/09/24 04:37:39;;;;;;;2.63;1.27;;;8.70;99.90;;;;;;5089800;22;20236;-61
2023/09/24 04:40:10;;;;;;;4.93;1.35;;;8.70;99.90;;;;;;5078654;28;20267;-61
2023/09/24 04:42:41;;;;;;;2.25;1.45;;;8.70;99.90;;;;;;5062757;28;20230;-61
2023/09/24 04:45:10;;;;;;;1.67;1.58;;;8.70;99.90;;;;;;5068463;28;20244;-61
2023/09/24 04:47:39;;;;;;;3.03;1.27;;;8.70;99.90;;;;;;5070627;28;20228;-61
2023/09/24 04:50:10;;;;;;;1.27;1.20;;;8.70;99.90;;;;;;5068557;28;20313;-62
2023/09/24 04:52:38;;;;;;;2.03;1.25;;;8.70;99.90;;;;;;5068627;28;20201;-61
2023/09/24 04:55:06;;;;;;;3.47;1.10;;;8.70;99.90;;;;;;5073786;28;20221;-60
2023/09/24 04:57:34;;;;;;;4.07;1.20;;;8.70;99.90;;;;;;5067085;28;20222;-61
2023/09/24 05:00:03;;;;;;;9.73;1.98;;;8.70;99.90;;;;;;5076920;28;20205;-61
2023/09/24 05:02:31;;;;;;;1.17;1.15;;;8.60;99.90;;;;;;5079170;28;20244;-61
2023/09/24 05:05:00;;;;;;;1.27;1.25;;;8.60;99.90;;;;;;5070589;28;20275;-62
2023/09/24 05:07:29;;;;;;;1.50;1.27;;;8.60;99.90;;;;;;5067640;28;20585;-62
2023/09/24 05:09:56;;;;;;;1.17;0.93;;;8.60;99.90;;;;;;5075591;28;20224;-60
2023/09/24 05:12:24;;;;;;;3.00;1.35;;;8.60;99.90;;;;;;5077872;28;20197;-61
2023/09/24 05:14:52;;;;;;;1.30;1.02;;;8.50;99.90;;;;;;5078601;28;20265;-61
2023/09/24 05:17:20;;;;;;;2.97;1.13;;;8.50;99.90;;;;;;5077680;28;20714;-61
2023/09/24 05:19:48;;;;;;;1.23;1.23;;;8.50;99.90;;;;;;5078459;28;20663;-58
2023/09/24 05:22:17;;;;;;;3.65;1.40;;;8.50;99.90;;;;;;5073993;28;20206;-60
2023/09/24 05:24:45;;;;;;;1.80;1.38;;;8.50;99.90;;;;;;5066170;28;20222;-62
2023/09/24 05:27:17;;;;;;;0.93;0.82;;;8.50;99.90;;;;;;5076496;28;20640;-62
2023/09/24 05:29:47;;;;;;;1.30;1.20;;;8.50;99.90;;;;;;5078840;28;20304;-60
2023/09/24 05:32:15;;;;;;;1.95;1.45;;;8.40;99.90;;;;;;5079220;28;20209;-61
2023/09/24 05:34:43;;;;;;;1.40;1.40;;;8.40;99.90;;;;;;5079235;28;20251;-61
2023/09/24 05:37:11;;;;;;;1.70;1.60;;;8.40;99.90;;;;;;5078662;28;20233;-61
2023/09/24 05:39:40;;;;;;;1.38;1.23;;;8.40;99.90;;;;;;5078018;28;20730;-60
2023/09/24 05:42:08;;;;;;;2.10;1.33;;;8.40;99.90;;;;;;5079130;28;20205;-61
2023/09/24 05:44:36;;;;;;;2.67;1.23;;;8.40;99.90;;;;;;5078801;28;20198;-61
2023/09/24 05:47:06;;;;;;;1.55;1.30;;;8.40;99.90;;;;;;5076134;28;20224;-61
2023/09/24 05:49:35;;;;;;;2.08;1.48;;;8.40;99.90;;;;;;5074530;28;20206;-61
2023/09/24 05:52:03;;;;;;;3.83;1.30;;;8.40;99.90;;;;;;5065991;28;20289;-62
2023/09/24 05:54:31;;;;;;;3.65;1.20;;;8.40;99.90;;;;;;5074475;28;20747;-59
2023/09/24 05:57:01;;;;;;;3.20;1.25;;;8.40;99.90;;;;;;5061662;28;20218;-57
2023/09/24 05:59:29;;;;;;;2.85;1.08;;;8.40;99.90;;;;;;5052555;28;20205;-60
2023/09/24 06:01:57;;;;;;;2.33;1.20;;;8.40;99.90;;;;;;5050914;28;20197;-59
2023/09/24 06:04:25;;;;;;;2.45;1.15;;;8.40;99.90;;;;;;5049452;28;20285;-59
2023/09/24 06:06:53;;;;;;;1.80;1.10;;;8.50;99.90;;;;;;5052270;28;20229;-59
2023/09/24 06:09:21;;;;;;;3.78;1.38;;;8.50;99.90;;;;;;5051826;28;20272;-60
2023/09/24 06:11:49;;;;;;;1.65;1.52;;;8.50;99.90;;;;;;5049536;28;20921;-60
2023/09/24 06:14:18;;;;;;;1.95;1.27;;;8.50;99.90;;;;;;5049597;28;20209;-60
2023/09/24 06:16:46;;;;;;;3.53;1.60;;;8.50;99.90;;;;;;5061296;28;20250;-60
2023/09/24 06:19:15;;;;;;;5.88;1.70;;;8.60;99.90;;;;;;5071280;28;20209;-61
2023/09/24 06:21:43;;;;;;;2.05;1.85;;;8.60;99.90;;;;;;5073018;28;20584;-61
2023/09/24 06:24:11;;;;;;;2.30;2.10;;;8.70;99.90;;;;;;5072610;28;20201;-60
2023/09/24 06:26:40;;;;;;;3.63;1.50;;;8.70;99.90;;;;;;5064657;28;20311;-60
2023/09/24 06:29:08;;;;;;;2.95;1.90;;;8.80;99.90;;;;;;5072478;28;20211;-59
2023/09/24 06:31:40;;;;;;;3.25;2.15;;;8.90;99.90;;;;;;5072783;28;20692;-60
2023/09/24 06:34:09;;;;;;;3.33;1.83;;;9.00;99.90;;;;;;5072463;28;20213;-60
2023/09/24 06:36:37;;;;;;;1.85;1.75;;;9.10;99.90;;;;;;5072333;28;20307;-60
2023/09/24 06:39:10;;;;;;;1.70;1.60;;;9.10;99.90;;;;;;5072154;28;20666;-60
2023/09/24 06:41:38;;;;;;;3.22;1.70;;;9.20;99.90;;;;;;5072508;28;20625;-59
2023/09/24 06:44:06;;;;;;;2.38;1.33;;;9.30;99.90;;;;;;5072486;28;20205;-60
2023/09/24 06:46:35;;;;;;;4.80;1.80;;;9.40;99.90;;;;;;5072251;28;20225;-60
2023/09/24 06:49:04;;;;;;;4.10;1.30;;;9.50;99.90;;;;;;5071506;28;20255;-60
2023/09/24 06:51:32;;;;;;;4.32;1.50;;;9.60;99.90;;;;;;5070242;28;20306;-60
2023/09/24 06:54:00;;;;;;;3.60;2.35;;;9.70;99.90;;;;;;5068172;28;20284;-60
2023/09/24 06:56:27;;;;;;;5.13;2.58;;;9.80;99.90;;;;;;5072115;28;20221;-59
2023/09/24 06:58:55;;;;;;;4.55;2.67;;;9.90;99.90;;;;;;5071797;28;20206;-60
2023/09/24 07:01:23;;;;;;;4.40;4.05;;;10.00;99.90;;;;;;5072022;28;20236;-60
2023/09/24 07:03:51;;;;;;;5.97;3.67;;;10.10;99.90;;;;;;5072149;28;20288;-60
2023/09/24 07:06:22;;;;;;;4.93;4.00;;;10.20;99.90;;;;;;5071972;28;20239;-60
2023/09/24 07:08:51;;;;;;;7.28;4.40;;;10.30;99.90;;;;;;5071490;28;20201;-60
2023/09/24 07:11:23;;;;;;;5.63;4.38;;;10.40;99.90;;;;;;5071958;28;20209;-59
2023/09/24 07:13:51;;;;;;;5.00;4.63;;;10.50;99.90;;;;;;5072066;28;20205;-59
2023/09/24 07:16:21;;;;;;;7.35;4.05;;;10.70;99.90;;;;;;5071313;28;20585;-59
2023/09/24 07:18:50;;;;;;;5.05;4.55;;;10.80;99.90;;;;;;5071763;28;20205;-60
2023/09/24 07:21:18;;;;;;;6.45;3.83;;;10.90;99.90;;;;;;5071724;28;20259;-60
2023/09/24 07:24:02;;;;;;;8.23;4.97;;;11.00;99.90;;;;;;5071764;28;20205;-61
2023/09/24 07:26:30;;;;;;;7.38;4.95;;;11.10;99.90;;;;;;5054587;28;20308;-60
2023/09/24 07:28:59;;;;;;;6.10;4.70;;;11.20;99.90;;;;;;5071692;28;20258;-60
2023/09/24 07:31:28;;;;;;;8.85;4.55;;;11.40;99.90;;;;;;5071589;28;20212;-60
2023/09/24 07:33:59;;;;;;;4.90;3.88;;;11.50;99.90;;;;;;5071464;28;20674;-60
2023/09/24 07:36:27;;;;;;;4.75;4.35;;;11.60;99.90;;;;;;5071477;28;20650;-61
2023/09/24 07:38:58;;;;;;;5.75;4.20;;;11.60;99.90;;;;;;5070568;28;20308;-60
2023/09/24 07:41:27;;;;;;;6.03;4.93;;;11.80;99.90;;;;;;5070498;28;20567;-61
2023/09/24 07:43:55;;;;;;;6.55;4.88;;;11.90;99.90;;;;;;5071482;28;20353;-61
2023/09/24 07:46:23;;;;;;;8.35;4.90;;;12.00;99.90;;;;;;5071456;28;20232;-61
2023/09/24 07:48:51;;;;;;;4.43;4.10;;;12.10;99.90;;;;;;5070885;28;20289;-60
2023/09/24 07:51:19;;;;;;;4.93;4.13;;;12.10;99.90;;;;;;5071496;28;20209;-61
2023/09/24 07:53:47;;;;;;;5.55;4.85;;;12.20;99.90;;;;;;5065525;28;20200;-61
2023/09/24 07:56:16;;;;;;;8.98;4.45;;;12.30;99.90;;;;;;5071404;28;20295;-59
2023/09/24 07:58:45;;;;;;;8.20;4.65;;;12.40;99.90;;;;;;5070960;28;20283;-60
2023/09/24 08:01:13;;;;;;;4.93;4.30;;;12.40;99.90;;;;;;5070631;28;20213;-60
2023/09/24 08:03:43;;;;;;;5.25;4.53;;;12.60;99.90;;;;;;5071160;28;20666;-61
2023/09/24 08:06:12;;;;;;;4.45;4.03;;;12.70;99.90;;;;;;5070861;28;20266;-61
2023/09/24 08:08:40;;;;;;;6.53;3.90;;;12.80;99.90;;;;;;5070727;28;20701;-60
2023/09/24 08:11:22;;;;;;;7.57;4.50;;;12.90;99.90;;;;;;5071160;28;20205;-61
2023/09/24 08:13:51;;;;;;;4.30;3.88;;;13.10;99.90;;;;;;5071300;28;20197;-61
2023/09/24 08:16:21;;;;;;;5.55;3.40;;;13.20;99.90;;;;;;5071118;28;20221;-61
2023/09/24 08:18:49;;;;;;;3.42;3.20;;;13.30;99.90;;;;;;5070556;28;20219;-60
2023/09/24 08:21:19;;;;;;;4.72;3.72;;;13.40;99.90;;;;;;5071073;28;20288;-61
2023/09/24 08:23:47;;;;;;;6.22;3.78;;;13.50;99.90;;;;;;5071083;28;20239;-61
2023/09/24 08:26:16;;;;;;;3.83;3.47;;;13.70;99.90;;;;;;5071008;28;20330;-61
2023/09/24 08:28:44;;;;;;;3.97;3.45;;;13.80;99.90;;;;;;5070669;28;20591;-61
2023/09/24 08:31:13;;;;;;;5.28;3.58;;;13.90;99.90;;;;;;5070712;28;20240;-61
2023/09/24 08:33:41;;;;;;;4.72;3.53;;;13.90;99.90;;;;;;5070868;28;20284;-60
2023/09/24 08:36:10;;;;;;;5.72;3.55;;;14.00;99.90;;;;;;5070640;28;20591;-60
2023/09/24 08:38:39;;;;;;;5.90;3.65;;;14.10;99.90;;;;;;5070529;28;20296;-60
2023/09/24 08:41:11;;;;;;;5.53;3.65;;;14.20;99.90;;;;;;5070827;28;20247;-58
2023/09/24 08:43:41;;;;;;;4.57;3.67;;;14.30;99.90;;;;;;5055695;28;20201;-57
2023/09/24 08:46:09;;;;;;;4.90;3.03;;;14.40;99.90;;;;;;5070727;28;20736;-57
2023/09/24 08:48:39;;;;;;;6.53;3.42;;;14.50;99.90;;;;;;5070300;28;20198;-58
2023/09/24 08:51:09;;;;;;;4.78;3.13;;;14.60;99.90;;;;;;5070681;28;20625;-58
2023/09/24 08:53:38;;;;;;;4.15;2.67;;;14.70;99.90;;;;;;5061130;28;20693;-57
2023/09/24 08:56:07;;;;;;;4.15;3.20;;;14.90;99.90;;;;;;5070527;28;20202;-57
2023/09/24 08:58:35;;;;;;;9.77;3.42;;;15.00;99.90;;;;;;5054170;28;20349;-58
2023/09/24 09:01:02;;;;;;;4.80;3.10;;;15.20;99.90;;;;;;5070479;28;20259;-58
2023/09/24 09:03:31;;;;;;;7.47;3.45;;;15.30;99.90;;;;;;5070310;28;20201;-58
2023/09/24 09:06:01;;;;;;;3.22;2.55;;;15.50;99.90;;;;;;5070673;28;20205;-58
2023/09/24 09:08:28;;;;;;;3.95;2.80;;;15.60;99.90;;;;;;5070086;28;20231;-58
2023/09/24 09:10:56;;;;;;;7.97;2.90;;;15.80;99.90;;;;;;5070320;28;20224;-58
2023/09/24 09:13:24;;;;;;;5.68;3.22;;;15.90;99.90;;;;;;5071326;28;20205;-58
2023/09/24 09:16:02;;;;;;;6.68;2.67;;;16.10;99.90;;;;;;5074189;28;20648;-58
2023/09/24 09:18:31;;;;;;;6.05;2.58;;;16.40;99.90;;;;;;5073638;28;20219;-58
2023/09/24 09:21:00;;;;;;;3.35;2.38;;;16.50;99.90;;;;;;5073894;28;20233;-58
2023/09/24 09:23:32;;;;;;;4.18;2.92;;;16.70;99.90;;;;;;5073541;28;20288;-58
2023/09/24 09:26:01;;;;;;;6.10;2.83;;;16.90;99.90;;;;;;5074096;28;20202;-59
2023/09/24 09:28:31;;;;;;;6.45;2.50;;;17.10;99.90;;;;;;5073507;28;20229;-58
2023/09/24 09:31:00;;;;;;;3.25;2.13;;;17.40;99.90;;;;;;5073516;28;20201;-58
2023/09/24 09:33:28;;;;;;;3.53;2.03;;;17.70;99.90;;;;;;5071087;28;20280;-57
2023/09/24 09:35:57;;;;;;;4.05;2.03;;;18.00;99.90;;;;;;5068383;28;20209;-58
2023/09/24 09:38:27;;;;;;;4.13;2.20;;;18.20;99.90;;;;;;5073535;28;20201;-58
2023/09/24 09:40:56;;;;;;;3.15;2.20;;;18.40;99.90;;;;;;5073661;28;20556;-58
2023/09/24 09:43:25;;;;;;;4.20;2.33;;;18.70;99.90;;;;;;5064982;28;20906;-58
2023/09/24 09:45:54;;;;;;;4.57;1.88;;;18.90;99.90;;;;;;5073558;28;20212;-58
2023/09/24 09:48:29;;;;;;;2.88;1.90;;;19.20;99.90;;;;;;5072784;28;20225;-58
2023/09/24 09:50:59;;;;;;;3.90;2.35;;;19.40;99.90;;;;;;5073450;28;20334;-59
2023/09/24 09:53:30;;;;;;;7.68;2.83;;;19.50;99.90;;;;;;5066852;28;20212;-58
2023/09/24 09:56:00;;;;;;;5.07;2.50;;;19.70;99.90;;;;;;5073367;28;20228;-58
2023/09/24 09:58:30;;;;;;;2.55;1.90;;;19.90;99.90;;;;;;5072872;28;20201;-59
2023/09/24 10:00:59;;;;;;;3.53;2.20;;;20.20;99.90;;;;;;5073232;28;20204;-59
2023/09/24 10:03:27;;;;;;;4.57;2.13;;;20.20;99.90;;;;;;5073139;28;20639;-58
2023/09/24 10:05:55;;;;;;;2.22;1.83;;;20.50;99.90;;;;;;5073634;28;20204;-58
2023/09/24 10:08:41;;;;;;;3.95;1.80;;;20.80;99.90;;;;;;5072483;28;20228;-57
2023/09/24 10:11:09;;;;;;;3.63;1.60;;;21.10;99.90;;;;;;5051132;28;20204;-58
2023/09/24 10:13:47;;;;;;;3.60;1.25;;;21.30;99.90;;;;;;5061227;28;20232;-59
2023/09/24 10:16:36;;;;;;;2.15;1.65;;;21.60;99.90;;;;;;5069906;28;20231;-59
2023/09/24 10:19:06;;;;;;;4.18;1.90;;;21.80;99.90;;;;;;5072347;28;20204;-59
2023/09/24 10:21:35;;;;;;;4.70;1.98;;;21.90;99.90;;;;;;5072737;28;20209;-59
2023/09/24 10:24:49;;;;;;;4.32;2.00;;;22.00;99.90;;;;;;5072179;28;20708;-57
2023/09/24 10:27:26;;;;;;;4.35;2.00;;;22.30;99.90;;;;;;5066498;28;20224;-59
2023/09/24 10:30:00;;;;;;;1.98;1.33;;;22.60;99.90;;;;;;5072261;28;20262;-58
2023/09/24 10:32:29;;;;;;;2.63;1.52;;;22.80;99.90;;;;;;5072400;28;20638;-58
2023/09/24 10:35:15;;;;;;;3.95;1.75;;;23.00;99.90;;;;;;5072186;28;20232;-59
2023/09/24 10:38:04;;;;;;;3.05;1.33;;;23.30;99.90;;;;;;5083036;22;20701;-72
2023/09/24 10:40:33;;;;;;;3.47;1.58;;;23.50;99.90;;;;;;5080115;28;20266;-71
2023/09/24 10:43:15;;;;;;;4.00;1.65;;;23.70;99.90;;;;;;5086957;28;20282;-71
2023/09/24 10:45:43;;;;;;;3.45;1.40;;;23.70;99.90;;;;;;5065111;28;20216;-71
2023/09/24 10:48:12;;;;;;;4.63;1.55;;;23.80;99.90;;;;;;5072595;28;20231;-69
2023/09/24 10:50:41;;;;;;;1.33;1.23;;;24.00;99.90;;;;;;5071983;28;20295;-69
2023/09/24 10:53:09;;;;;;;2.20;1.33;;;24.20;99.90;;;;;;5072068;28;20658;-69
2023/09/24 10:55:39;;;;;;;3.67;1.25;;;24.40;99.90;;;;;;5072230;28;20252;-69
2023/09/24 10:58:15;;;;;;;1.73;1.10;;;24.60;99.90;;;;;;5071401;28;20348;-69
2023/09/24 11:00:44;;;;;;;2.47;1.42;;;24.90;99.90;;;;;;5064079;28;20219;-69
2023/09/24 11:03:14;;;;;;;3.03;1.25;;;25.10;99.90;;;;;;5071757;28;20262;-69
2023/09/24 11:05:47;;;;;;;2.63;0.82;;;25.10;99.90;;;;;;5063507;28;20270;-69
2023/09/24 11:08:16;;;;;;;3.58;1.20;;;25.10;99.90;;;;;;5071449;28;20593;-69
2023/09/24 11:10:47;;;;;;;4.82;1.33;;;25.10;99.90;;;;;;5063961;28;20674;-69
2023/09/24 11:13:16;;;;;;;2.30;1.55;;;25.20;99.90;;;;;;5071453;28;20204;-69
2023/09/24 11:15:44;;;;;;;3.38;1.40;;;25.30;99.90;;;;;;5071515;28;20220;-70
2023/09/24 11:18:13;;;;;;;3.33;1.05;;;25.50;99.90;;;;;;5071123;28;20739;-69
2023/09/24 11:20:51;;;;;;;1.83;1.45;;;25.80;99.90;;;;;;5071920;28;20205;-69
2023/09/24 11:23:19;;;;;;;2.58;1.30;;;26.00;99.90;;;;;;5071756;28;20212;-69
2023/09/24 11:25:47;;;;;;;1.77;1.50;;;26.00;99.90;;;;;;5071545;28;20328;-69
2023/09/24 11:28:19;;;;;;;6.55;1.70;;;26.10;99.90;;;;;;5070791;28;20658;-69
2023/09/24 11:30:48;;;;;;;3.22;1.40;;;26.10;99.90;;;;;;5071798;28;20258;-69
2023/09/24 11:33:17;;;;;;;2.40;1.25;;;26.30;99.90;;;;;;5071524;28;20646;-70
2023/09/24 11:35:45;;;;;;;4.05;1.20;;;26.50;99.90;;;;;;5070681;28;20768;-69
2023/09/24 11:38:14;;;;;;;1.77;1.23;;;26.80;99.90;;;;;;5071079;28;20213;-69
2023/09/24 11:40:42;;;;;;;1.30;1.17;;;26.80;99.90;;;;;;5071361;28;20200;-69
2023/09/24 11:43:13;;;;;;;3.15;1.90;;;26.70;99.90;;;;;;5071441;28;20201;-70
2023/09/24 11:45:46;;;;;;;2.22;1.20;;;26.70;99.90;;;;;;5071221;28;20221;-70
2023/09/24 11:48:15;;;;;;;2.60;1.23;;;26.80;99.90;;;;;;5070951;28;20698;-69
2023/09/24 11:50:43;;;;;;;1.95;0.90;;;27.00;99.90;;;;;;5071016;28;20700;-69
2023/09/24 11:53:10;;;;;;;2.25;0.90;;;27.10;99.90;;;;;;5063960;28;20700;-70
2023/09/24 11:55:40;;;;;;;1.55;0.90;;;27.30;99.90;;;;;;5070715;28;20319;-70
2023/09/24 11:58:09;;;;;;;2.90;1.10;;;27.20;99.90;;;;;;5070975;28;20211;-69
2023/09/24 12:00:38;;;;;;;1.20;0.75;;;27.40;99.90;;;;;;5070455;28;20217;-70
2023/09/24 12:03:07;;;;;;;0.68;0.68;;;27.40;99.50;;;;;;5071065;28;20208;-69
2023/09/24 12:05:35;;;;;;;1.17;0.85;;;27.50;97.70;;;;;;5070393;28;20319;-70
2023/09/24 12:08:04;;;;;;;4.05;0.95;;;27.30;97.20;;;;;;5070408;28;20247;-70
2023/09/24 12:10:33;;;;;;;2.63;1.00;;;27.60;96.30;;;;;;5071178;28;20254;-70
2023/09/24 12:13:02;;;;;;;1.75;0.70;;;27.70;96.60;;;;;;5071476;28;20289;-72
2023/09/24 12:15:30;;;;;;;1.35;0.80;;;27.70;97.70;;;;;;5062813;28;20228;-72
2023/09/24 12:17:59;;;;;;;0.57;0.57;;;27.80;96.40;;;;;;5071002;28;20662;-72
2023/09/24 12:20:28;;;;;;;1.27;0.70;;;28.00;95.30;;;;;;5070646;28;20204;-72
2023/09/24 12:22:57;;;;;;;2.60;0.93;;;27.90;94.80;;;;;;5062717;28;20200;-71
2023/09/24 12:25:25;;;;;;;4.10;0.90;;;27.70;95.30;;;;;;5062354;28;20225;-71
2023/09/24 12:27:52;;;;;;;1.52;0.75;;;27.90;95.60;;;;;;5059008;28;20247;-71
2023/09/24 12:30:20;;;;;;;2.30;0.80;;;28.10;95.20;;;;;;5067732;28;20320;-71
2023/09/24 12:32:48;;;;;;;1.77;0.80;;;28.40;94.20;;;;;;5070933;28;20294;-71
2023/09/24 12:35:16;;;;;;;1.20;0.88;;;28.50;92.10;;;;;;5071337;28;20235;-71
2023/09/24 12:37:45;;;;;;;1.63;0.82;;;28.00;93.80;;;;;;5067552;28;20217;-71
2023/09/24 12:40:14;;;;;;;2.25;0.80;;;28.00;93.50;;;;;;5066285;28;20207;-72
2023/09/24 12:42:42;;;;;;;1.05;0.80;;;28.00;93.30;;;;;;5059866;28;20258;-71
2023/09/24 12:45:10;;;;;;;2.60;0.65;;;27.90;93.50;;;;;;5066105;28;20477;-71
2023/09/24 12:47:39;;;;;;;1.90;1.00;;;28.20;93.50;;;;;;5071867;28;20227;-71
2023/09/24 12:50:08;;;;;;;0.85;0.80;;;28.10;92.80;;;;;;5074640;28;20227;-71
2023/09/24 12:52:37;;;;;;;1.75;0.98;;;28.10;93.70;;;;;;5074964;28;20274;-71
2023/09/24 12:55:08;;;;;;;2.20;0.90;;;28.10;92.80;;;;;;5074672;28;20252;-72
2023/09/24 12:57:36;;;;;;;2.38;1.00;;;28.00;93.40;;;;;;5074568;28;20228;-71
2023/09/24 13:00:10;;;;;;;3.40;1.17;;;28.00;93.40;;;;;;5074135;28;20223;-71
2023/09/24 13:02:40;;;;;;;1.45;1.20;;;28.20;93.60;;;;;;5074738;28;20216;-71